createdAt,value
2023-03-23T16:00:19.312Z,97016.91
2023-03-23T16:02:50.154Z,97021.28
2023-03-23T16:05:18.660Z,97013.81
2023-03-23T16:07:48.558Z,97015.94
2023-03-23T16:10:18.976Z,97016.25
2023-03-23T16:12:47.707Z,97018.69
2023-03-23T16:15:17.115Z,97024.19
2023-03-23T16:17:46.461Z,97021.44
2023-03-23T16:20:19.275Z,97015.59
2023-03-23T16:22:50.310Z,97019.97
2023-03-23T16:25:19.762Z,97020.28
2023-03-23T16:27:52.274Z,97020.28
2023-03-23T16:30:25.405Z,97025.81
2023-03-23T16:32:57.051Z,97026.59
2023-03-23T16:35:26.644Z,97020.28
2023-03-23T16:38:08.046Z,97022.41
2023-03-23T16:40:38.585Z,97009.44
2023-03-23T16:43:09.037Z,97017.38
2023-03-23T16:45:43.181Z,97017.38
2023-03-23T16:48:13.037Z,97019.00
2023-03-23T16:50:42.165Z,97019.47
2023-03-23T16:53:12.599Z,97012.84
2023-03-23T16:55:42.118Z,97014.47
2023-03-23T16:58:17.017Z,97019.97
2023-03-23T17:00:49.156Z,97025.47
2023-03-23T17:03:18.463Z,97017.22
2023-03-23T17:05:48.705Z,97024.81
2023-03-23T17:08:19.144Z,97028.38
2023-03-23T17:10:48.565Z,97023.19
2023-03-23T17:13:17.546Z,97015.44
2023-03-23T17:15:47.627Z,97019.00
2023-03-23T17:18:16.935Z,97022.06
2023-03-23T17:20:45.708Z,97024.16
2023-03-23T17:23:14.227Z,97027.72
2023-03-23T17:25:45.169Z,97026.59
2023-03-23T17:28:14.045Z,97032.91
2023-03-23T17:30:43.184Z,97030.16
2023-03-23T17:33:12.060Z,97036.16
2023-03-23T17:35:40.840Z,97026.28
2023-03-23T17:38:09.355Z,97033.41
2023-03-23T17:40:37.790Z,97023.53
2023-03-23T17:43:07.588Z,97030.16
2023-03-23T17:45:36.526Z,97028.53
2023-03-23T17:48:07.673Z,97035.19
2023-03-23T17:50:36.923Z,97030.47
2023-03-23T17:53:05.814Z,97012.03
2023-03-23T17:55:34.472Z,97003.78
2023-03-23T17:58:03.198Z,97005.38
2023-03-23T18:00:33.252Z,97017.53
2023-03-23T18:03:02.216Z,97008.47
2023-03-23T18:05:31.869Z,97014.44
2023-03-23T18:08:00.725Z,97005.38
2023-03-23T18:10:29.161Z,97020.28
2023-03-23T18:12:57.718Z,97012.03
2023-03-23T18:15:28.208Z,97021.91
2023-03-23T18:17:58.984Z,97015.59
2023-03-23T18:20:28.229Z,97023.03
2023-03-23T18:22:56.988Z,97020.28
2023-03-23T18:25:25.964Z,97009.28
2023-03-23T18:27:54.399Z,97022.56
2023-03-23T18:30:23.178Z,97027.25
2023-03-23T18:32:51.950Z,97028.06
2023-03-23T18:35:21.823Z,97019.81
2023-03-23T18:37:50.419Z,97016.25
2023-03-23T18:40:19.922Z,97012.69
2023-03-23T18:42:49.162Z,97020.94
2023-03-23T18:45:17.774Z,97022.56
2023-03-23T18:47:46.280Z,97018.66
2023-03-23T18:50:14.804Z,97018.66
2023-03-23T18:52:45.021Z,97019.47
2023-03-23T18:55:13.541Z,97012.34
2023-03-23T18:57:42.075Z,97017.53
2023-03-23T19:00:11.891Z,97014.78
2023-03-23T19:02:40.471Z,97022.72
2023-03-23T19:05:10.937Z,97025.94
2023-03-23T19:07:39.688Z,97028.38
2023-03-23T19:10:09.723Z,97020.13
2023-03-23T19:12:38.523Z,97028.53
2023-03-23T19:15:08.166Z,97023.84
2023-03-23T19:17:37.638Z,97024.63
2023-03-23T19:22:40.893Z,97018.81
2023-03-23T19:25:11.286Z,97025.94
2023-03-23T19:28:08.150Z,97014.59
2023-03-23T19:30:28.264Z,97020.91
2023-03-23T19:32:56.891Z,97020.91
2023-03-23T19:35:26.555Z,97012.66
2023-03-23T19:37:54.993Z,97033.53
2023-03-23T19:40:39.558Z,97020.91
2023-03-23T19:43:09.848Z,97023.19
2023-03-23T19:45:38.529Z,97022.69
2023-03-23T19:48:07.667Z,97022.22
2023-03-23T19:50:38.539Z,97024.97
2023-03-23T19:53:07.289Z,97026.59
2023-03-23T19:55:37.238Z,97030.16
2023-03-23T19:58:06.026Z,97029.00
2023-03-23T20:00:35.924Z,97028.69
2023-03-23T20:03:05.111Z,97023.19
2023-03-23T20:05:34.293Z,97023.66
2023-03-23T20:08:04.660Z,97021.72
2023-03-23T20:10:35.561Z,97024.16
2023-03-23T20:13:08.185Z,97019.44
2023-03-23T20:15:36.717Z,97026.56
2023-03-23T20:18:07.201Z,97017.84
2023-03-23T20:20:36.746Z,97020.25
2023-03-23T20:23:07.836Z,97020.25
2023-03-23T20:25:36.970Z,97018.63
2023-03-23T20:28:07.313Z,97021.06
2023-03-23T20:30:36.504Z,97023.50
2023-03-23T20:33:05.426Z,97023.50
2023-03-23T20:35:34.078Z,97023.50
2023-03-23T20:38:02.573Z,97028.19
2023-03-23T20:40:31.347Z,97025.09
2023-03-23T20:43:00.485Z,97017.66
2023-03-23T20:45:30.359Z,97014.91
2023-03-23T20:48:02.129Z,97008.59
2023-03-23T20:50:30.912Z,97009.06
2023-03-23T20:52:59.404Z,97007.13
2023-03-23T20:55:28.569Z,97004.38
2023-03-23T20:57:57.099Z,97002.44
2023-03-23T21:00:25.630Z,97002.44
2023-03-23T21:02:55.881Z,97003.25
2023-03-23T21:05:25.201Z,96998.53
2023-03-23T21:07:55.694Z,96986.72
2023-03-23T21:10:25.726Z,96997.41
2023-03-23T21:12:54.508Z,96992.72
2023-03-23T21:15:23.049Z,96994.66
2023-03-23T21:17:51.968Z,96990.75
2023-03-23T21:20:23.774Z,96978.13
2023-03-23T21:22:52.254Z,96971.00
2023-03-23T21:25:22.049Z,96967.59
2023-03-23T21:28:04.320Z,96964.84
2023-03-23T21:30:32.774Z,96965.66
2023-03-23T21:33:01.301Z,96961.75
2023-03-23T21:35:31.070Z,96957.72
2023-03-23T21:37:59.706Z,96949.78
2023-03-23T21:40:28.228Z,96956.75
2023-03-23T21:42:56.758Z,96942.50
2023-03-23T21:45:26.098Z,96948.69
2023-03-23T21:47:57.042Z,96937.19
2023-03-23T21:50:26.093Z,96932.00
2023-03-23T21:52:55.911Z,96932.34
2023-03-23T21:55:25.264Z,96930.72
2023-03-23T21:57:53.794Z,96924.72
2023-03-23T22:00:22.910Z,96923.13
2023-03-23T22:02:53.112Z,96917.13
2023-03-23T22:05:22.505Z,96908.06
2023-03-23T22:07:51.761Z,96919.06
2023-03-23T22:10:21.997Z,96912.75
2023-03-23T22:12:53.653Z,96901.28
2023-03-23T22:15:27.781Z,96898.53
2023-03-23T22:17:56.562Z,96897.72
2023-03-23T22:20:25.553Z,96881.19
2023-03-23T22:22:54.403Z,96891.41
2023-03-23T22:25:24.447Z,96884.28
2023-03-23T22:27:55.340Z,96877.97
2023-03-23T22:30:24.511Z,96883.47
2023-03-23T22:32:53.158Z,96868.91
2023-03-23T22:35:21.740Z,96870.84
2023-03-23T22:37:50.436Z,96867.28
2023-03-23T22:40:19.633Z,96864.53
2023-03-23T22:42:49.509Z,96851.91
2023-03-23T22:45:18.647Z,96845.94
2023-03-23T22:47:47.399Z,96845.94
2023-03-23T22:50:16.166Z,96834.44
2023-03-23T22:52:44.773Z,96829.28
2023-03-23T22:55:13.367Z,96832.84
2023-03-23T22:57:41.981Z,96833.16
2023-03-23T23:00:15.217Z,96826.84
2023-03-23T23:02:44.531Z,96816.16
2023-03-23T23:05:13.764Z,96823.28
2023-03-23T23:07:42.421Z,96811.47
2023-03-23T23:10:11.451Z,96813.75
2023-03-23T23:12:42.313Z,96822.00
2023-03-23T23:15:14.471Z,96816.50
2023-03-23T23:17:43.322Z,96818.44
2023-03-23T23:20:14.228Z,96824.75
2023-03-23T23:22:44.539Z,96817.63
2023-03-23T23:25:13.637Z,96806.63
2023-03-23T23:27:42.300Z,96800.31
2023-03-23T23:30:13.439Z,96798.38
2023-03-23T23:32:44.569Z,96799.50
2023-03-23T23:35:14.116Z,96794.00
2023-03-23T23:37:42.694Z,96789.66
2023-03-23T23:40:14.884Z,96790.44
2023-03-23T23:42:44.554Z,96795.16
2023-03-23T23:45:16.276Z,96797.91
2023-03-23T23:47:45.625Z,96803.25
2023-03-23T23:50:15.457Z,96823.81
2023-03-23T23:52:44.691Z,96821.06
2023-03-23T23:55:16.593Z,96830.09
2023-03-23T23:57:46.487Z,96835.63
